sensor_id;sensor_type;location;lat;lon;timestamp;pressure;altitude;pressure_sealevel;temperature;humidity
77778;BME280;66966;-34.746;138.604;2023-03-31T00:00:19;101804.88;;;18.27;47.11
77778;BME280;66966;-34.746;138.604;2023-03-31T00:02:44;101800.20;;;17.80;46.57
77778;BME280;66966;-34.746;138.604;2023-03-31T00:05:10;101799.36;;;18.12;46.57
77778;BME280;66966;-34.746;138.604;2023-03-31T00:07:36;101800.27;;;18.06;46.28
77778;BME280;66966;-34.746;138.604;2023-03-31T00:10:01;101802.94;;;18.13;46.49
77778;BME280;66966;-34.746;138.604;2023-03-31T00:12:27;101800.08;;;18.23;46.40
77778;BME280;66966;-34.746;138.604;2023-03-31T00:14:52;101799.86;;;18.07;46.23
77778;BME280;66966;-34.746;138.604;2023-03-31T00:17:17;101801.46;;;18.65;45.99
77778;BME280;66966;-34.746;138.604;2023-03-31T00:19:43;101802.86;;;18.56;46.40
77778;BME280;66966;-34.746;138.604;2023-03-31T00:22:09;101804.54;;;18.51;46.34
77778;BME280;66966;-34.746;138.604;2023-03-31T00:24:35;101802.78;;;18.62;46.03
77778;BME280;66966;-34.746;138.604;2023-03-31T00:26:59;101803.82;;;18.69;45.99
77778;BME280;66966;-34.746;138.604;2023-03-31T00:29:25;101805.27;;;18.76;46.00
77778;BME280;66966;-34.746;138.604;2023-03-31T00:31:50;101800.93;;;18.86;46.15
77778;BME280;66966;-34.746;138.604;2023-03-31T00:34:16;101796.17;;;18.98;45.78
77778;BME280;66966;-34.746;138.604;2023-03-31T00:36:41;101794.61;;;19.24;45.24
77778;BME280;66966;-34.746;138.604;2023-03-31T00:39:08;101797.01;;;18.97;45.06
77778;BME280;66966;-34.746;138.604;2023-03-31T00:41:32;101795.66;;;18.99;44.50
77778;BME280;66966;-34.746;138.604;2023-03-31T00:44:06;101797.52;;;18.92;45.36
77778;BME280;66966;-34.746;138.604;2023-03-31T00:46:28;101801.89;;;19.15;45.10
77778;BME280;66966;-34.746;138.604;2023-03-31T00:48:52;101808.61;;;19.19;44.28
77778;BME280;66966;-34.746;138.604;2023-03-31T00:51:14;101813.83;;;19.25;44.79
77778;BME280;66966;-34.746;138.604;2023-03-31T00:53:40;101810.75;;;19.38;44.92
77778;BME280;66966;-34.746;138.604;2023-03-31T00:56:09;101808.98;;;19.34;45.45
77778;BME280;66966;-34.746;138.604;2023-03-31T00:58:31;101807.40;;;19.21;44.98
77778;BME280;66966;-34.746;138.604;2023-03-31T01:00:58;101807.18;;;19.31;44.52
77778;BME280;66966;-34.746;138.604;2023-03-31T01:03:22;101806.70;;;19.33;44.04
77778;BME280;66966;-34.746;138.604;2023-03-31T01:05:49;101808.31;;;19.78;44.72
77778;BME280;66966;-34.746;138.604;2023-03-31T01:08:13;101804.32;;;19.34;44.38
77778;BME280;66966;-34.746;138.604;2023-03-31T01:10:42;101799.38;;;19.74;44.12
77778;BME280;66966;-34.746;138.604;2023-03-31T01:13:04;101803.24;;;19.29;44.22
77778;BME280;66966;-34.746;138.604;2023-03-31T01:15:29;101804.86;;;19.42;44.16
77778;BME280;66966;-34.746;138.604;2023-03-31T01:17:54;101803.28;;;19.39;44.04
77778;BME280;66966;-34.746;138.604;2023-03-31T01:20:26;101797.91;;;19.45;43.41
77778;BME280;66966;-34.746;138.604;2023-03-31T01:27:48;101792.46;;;19.54;43.42
77778;BME280;66966;-34.746;138.604;2023-03-31T01:30:10;101787.58;;;19.51;43.47
77778;BME280;66966;-34.746;138.604;2023-03-31T01:35:02;101779.54;;;19.55;42.87
77778;BME280;66966;-34.746;138.604;2023-03-31T01:42:14;101780.55;;;19.57;42.81
77778;BME280;66966;-34.746;138.604;2023-03-31T01:44:42;101782.63;;;19.72;42.85
77778;BME280;66966;-34.746;138.604;2023-03-31T01:47:04;101785.65;;;19.83;42.49
77778;BME280;66966;-34.746;138.604;2023-03-31T01:49:32;101786.88;;;19.87;42.99
77778;BME280;66966;-34.746;138.604;2023-03-31T01:51:56;101785.48;;;19.92;43.32
77778;BME280;66966;-34.746;138.604;2023-03-31T01:54:21;101781.28;;;19.99;42.67
77778;BME280;66966;-34.746;138.604;2023-03-31T01:56:46;101782.00;;;20.07;41.40
77778;BME280;66966;-34.746;138.604;2023-03-31T01:59:12;101780.37;;;19.89;40.89
77778;BME280;66966;-34.746;138.604;2023-03-31T02:01:35;101778.44;;;19.92;39.96
77778;BME280;66966;-34.746;138.604;2023-03-31T02:03:59;101782.51;;;20.12;40.87
77778;BME280;66966;-34.746;138.604;2023-03-31T02:06:26;101780.41;;;20.31;39.83
77778;BME280;66966;-34.746;138.604;2023-03-31T02:08:51;101775.36;;;20.35;39.73
77778;BME280;66966;-34.746;138.604;2023-03-31T02:11:15;101775.54;;;20.42;40.79
77778;BME280;66966;-34.746;138.604;2023-03-31T02:13:43;101776.75;;;20.57;39.27
77778;BME280;66966;-34.746;138.604;2023-03-31T02:16:09;101782.30;;;20.90;38.87
77778;BME280;66966;-34.746;138.604;2023-03-31T02:18:31;101780.14;;;21.02;38.83
77778;BME280;66966;-34.746;138.604;2023-03-31T02:20:58;101781.03;;;20.67;39.04
77778;BME280;66966;-34.746;138.604;2023-03-31T02:23:24;101779.64;;;20.53;38.52
77778;BME280;66966;-34.746;138.604;2023-03-31T02:25:49;101779.14;;;20.60;39.01
77778;BME280;66966;-34.746;138.604;2023-03-31T02:28:14;101777.14;;;20.94;39.22
77778;BME280;66966;-34.746;138.604;2023-03-31T02:30:44;101774.87;;;20.85;38.47
77778;BME280;66966;-34.746;138.604;2023-03-31T02:33:03;101772.63;;;20.95;38.46
77778;BME280;66966;-34.746;138.604;2023-03-31T02:35:28;101772.17;;;20.73;38.37
77778;BME280;66966;-34.746;138.604;2023-03-31T02:37:53;101770.41;;;21.00;38.22
77778;BME280;66966;-34.746;138.604;2023-03-31T02:40:21;101766.57;;;21.23;38.11
77778;BME280;66966;-34.746;138.604;2023-03-31T02:42:44;101762.88;;;21.15;38.38
77778;BME280;66966;-34.746;138.604;2023-03-31T02:47:35;101756.65;;;20.94;37.32
77778;BME280;66966;-34.746;138.604;2023-03-31T02:50:02;101751.03;;;21.43;37.35
77778;BME280;66966;-34.746;138.604;2023-03-31T02:52:44;101747.47;;;21.67;36.55
77778;BME280;66966;-34.746;138.604;2023-03-31T02:55:05;101741.13;;;21.79;35.28
77778;BME280;66966;-34.746;138.604;2023-03-31T02:57:30;101749.30;;;21.47;35.40
77778;BME280;66966;-34.746;138.604;2023-03-31T02:59:51;101746.87;;;21.88;34.88
77778;BME280;66966;-34.746;138.604;2023-03-31T03:02:12;101743.20;;;21.75;35.22
77778;BME280;66966;-34.746;138.604;2023-03-31T03:04:45;101743.11;;;21.41;34.28
77778;BME280;66966;-34.746;138.604;2023-03-31T03:07:04;101734.02;;;21.49;34.83
77778;BME280;66966;-34.746;138.604;2023-03-31T03:09:31;101730.14;;;21.83;34.80
77778;BME280;66966;-34.746;138.604;2023-03-31T03:11:54;101725.28;;;21.87;33.98
77778;BME280;66966;-34.746;138.604;2023-03-31T03:14:21;101725.70;;;22.00;33.13
77778;BME280;66966;-34.746;138.604;2023-03-31T03:16:41;101722.26;;;21.42;33.34
77778;BME280;66966;-34.746;138.604;2023-03-31T03:19:07;101725.17;;;22.03;33.23
77778;BME280;66966;-34.746;138.604;2023-03-31T03:21:31;101719.61;;;21.41;32.32
77778;BME280;66966;-34.746;138.604;2023-03-31T03:23:56;101718.80;;;21.86;32.21
77778;BME280;66966;-34.746;138.604;2023-03-31T03:26:22;101713.93;;;21.39;31.37
77778;BME280;66966;-34.746;138.604;2023-03-31T03:28:46;101715.02;;;21.53;31.30
77778;BME280;66966;-34.746;138.604;2023-03-31T03:31:12;101712.71;;;22.00;31.41
77778;BME280;66966;-34.746;138.604;2023-03-31T03:33:37;101715.59;;;21.58;31.30
77778;BME280;66966;-34.746;138.604;2023-03-31T03:36:03;101713.11;;;21.75;30.89
77778;BME280;66966;-34.746;138.604;2023-03-31T03:38:28;101714.49;;;21.46;31.56
77778;BME280;66966;-34.746;138.604;2023-03-31T03:40:53;101713.85;;;22.16;30.66
77778;BME280;66966;-34.746;138.604;2023-03-31T03:43:18;101712.31;;;22.21;31.22
77778;BME280;66966;-34.746;138.604;2023-03-31T03:45:47;101706.71;;;22.34;30.70
77778;BME280;66966;-34.746;138.604;2023-03-31T03:48:09;101708.25;;;22.61;30.78
77778;BME280;66966;-34.746;138.604;2023-03-31T03:50:36;101702.27;;;22.44;29.90
77778;BME280;66966;-34.746;138.604;2023-03-31T03:52:59;101700.99;;;22.64;30.05
77778;BME280;66966;-34.746;138.604;2023-03-31T03:55:25;101700.38;;;22.50;30.63
77778;BME280;66966;-34.746;138.604;2023-03-31T03:57:51;101696.46;;;22.88;29.57
77778;BME280;66966;-34.746;138.604;2023-03-31T04:00:16;101695.36;;;22.65;29.45
77778;BME280;66966;-34.746;138.604;2023-03-31T04:02:41;101694.87;;;22.27;29.89
77778;BME280;66966;-34.746;138.604;2023-03-31T04:05:07;101687.93;;;22.44;29.82
77778;BME280;66966;-34.746;138.604;2023-03-31T04:07:32;101681.69;;;22.62;28.69
77778;BME280;66966;-34.746;138.604;2023-03-31T04:09:57;101680.35;;;22.84;28.40
77778;BME280;66966;-34.746;138.604;2023-03-31T04:12:23;101674.75;;;22.86;28.26
77778;BME280;66966;-34.746;138.604;2023-03-31T04:14:48;101674.36;;;22.79;27.63
77778;BME280;66966;-34.746;138.604;2023-03-31T04:17:13;101672.19;;;23.32;27.55
77778;BME280;66966;-34.746;138.604;2023-03-31T04:19:38;101674.46;;;22.99;28.48
77778;BME280;66966;-34.746;138.604;2023-03-31T04:22:04;101670.29;;;22.93;27.91
77778;BME280;66966;-34.746;138.604;2023-03-31T04:24:29;101669.85;;;22.79;27.23
77778;BME280;66966;-34.746;138.604;2023-03-31T04:26:54;101672.13;;;23.23;28.54
77778;BME280;66966;-34.746;138.604;2023-03-31T04:29:19;101666.65;;;23.40;27.01
77778;BME280;66966;-34.746;138.604;2023-03-31T04:31:45;101663.88;;;23.23;26.37
77778;BME280;66966;-34.746;138.604;2023-03-31T04:34:12;101665.12;;;23.27;26.94
77778;BME280;66966;-34.746;138.604;2023-03-31T04:36:36;101660.31;;;23.07;26.77
77778;BME280;66966;-34.746;138.604;2023-03-31T04:39:01;101663.52;;;23.51;27.21
77778;BME280;66966;-34.746;138.604;2023-03-31T04:41:26;101660.11;;;23.61;27.12
77778;BME280;66966;-34.746;138.604;2023-03-31T04:43:51;101653.57;;;23.22;26.76
77778;BME280;66966;-34.746;138.604;2023-03-31T04:46:17;101656.32;;;22.97;27.59
77778;BME280;66966;-34.746;138.604;2023-03-31T04:48:42;101654.47;;;23.52;27.55
77778;BME280;66966;-34.746;138.604;2023-03-31T04:51:07;101654.01;;;23.96;27.94
77778;BME280;66966;-34.746;138.604;2023-03-31T04:53:32;101649.94;;;23.69;26.88
77778;BME280;66966;-34.746;138.604;2023-03-31T04:55:58;101649.76;;;24.45;26.82
77778;BME280;66966;-34.746;138.604;2023-03-31T04:58:23;101648.51;;;23.95;26.77
77778;BME280;66966;-34.746;138.604;2023-03-31T05:00:48;101652.11;;;24.50;27.06
77778;BME280;66966;-34.746;138.604;2023-03-31T05:03:13;101654.25;;;24.10;26.51
77778;BME280;66966;-34.746;138.604;2023-03-31T05:05:39;101651.45;;;24.20;26.47
77778;BME280;66966;-34.746;138.604;2023-03-31T05:08:04;101652.33;;;23.86;26.89
77778;BME280;66966;-34.746;138.604;2023-03-31T05:10:30;101650.83;;;23.79;27.16
77778;BME280;66966;-34.746;138.604;2023-03-31T05:12:55;101649.54;;;24.37;26.93
77778;BME280;66966;-34.746;138.604;2023-03-31T05:15:20;101652.54;;;23.95;27.52
77778;BME280;66966;-34.746;138.604;2023-03-31T05:17:45;101652.86;;;24.30;27.15
77778;BME280;66966;-34.746;138.604;2023-03-31T05:20:12;101657.31;;;24.24;26.93
77778;BME280;66966;-34.746;138.604;2023-03-31T05:22:37;101655.55;;;24.18;26.41
77778;BME280;66966;-34.746;138.604;2023-03-31T05:25:01;101657.43;;;24.13;27.08
77778;BME280;66966;-34.746;138.604;2023-03-31T05:27:26;101657.36;;;24.07;26.80
77778;BME280;66966;-34.746;138.604;2023-03-31T05:29:51;101659.10;;;24.09;26.89
77778;BME280;66966;-34.746;138.604;2023-03-31T05:32:17;101658.37;;;23.96;27.69
77778;BME280;66966;-34.746;138.604;2023-03-31T05:34:42;101663.85;;;24.28;27.73
77778;BME280;66966;-34.746;138.604;2023-03-31T05:37:07;101663.00;;;24.08;27.78
77778;BME280;66966;-34.746;138.604;2023-03-31T05:39:32;101664.57;;;24.02;28.14
77778;BME280;66966;-34.746;138.604;2023-03-31T05:41:58;101663.02;;;24.34;27.79
77778;BME280;66966;-34.746;138.604;2023-03-31T05:44:23;101655.32;;;24.09;27.96
77778;BME280;66966;-34.746;138.604;2023-03-31T05:46:48;101660.38;;;24.25;27.70
77778;BME280;66966;-34.746;138.604;2023-03-31T05:49:14;101664.59;;;24.61;27.84
77778;BME280;66966;-34.746;138.604;2023-03-31T05:51:38;101657.08;;;23.82;28.21
77778;BME280;66966;-34.746;138.604;2023-03-31T05:54:04;101654.08;;;23.93;28.25
77778;BME280;66966;-34.746;138.604;2023-03-31T05:56:29;101651.80;;;23.72;28.84
77778;BME280;66966;-34.746;138.604;2023-03-31T05:58:54;101655.24;;;24.33;28.49
77778;BME280;66966;-34.746;138.604;2023-03-31T06:01:20;101646.87;;;24.01;28.42
77778;BME280;66966;-34.746;138.604;2023-03-31T06:03:45;101648.74;;;23.67;28.24
77778;BME280;66966;-34.746;138.604;2023-03-31T06:06:10;101651.83;;;23.89;28.61
77778;BME280;66966;-34.746;138.604;2023-03-31T06:08:36;101648.32;;;23.45;28.75
77778;BME280;66966;-34.746;138.604;2023-03-31T06:11:03;101646.62;;;23.76;28.83
77778;BME280;66966;-34.746;138.604;2023-03-31T06:13:26;101645.93;;;24.02;29.05
77778;BME280;66966;-34.746;138.604;2023-03-31T06:15:56;101649.60;;;23.68;29.70
77778;BME280;66966;-34.746;138.604;2023-03-31T06:18:16;101645.54;;;23.74;29.98
77778;BME280;66966;-34.746;138.604;2023-03-31T06:20:42;101647.61;;;23.50;30.49
77778;BME280;66966;-34.746;138.604;2023-03-31T06:23:07;101647.25;;;23.45;30.66
77778;BME280;66966;-34.746;138.604;2023-03-31T06:25:32;101650.76;;;23.38;30.25
77778;BME280;66966;-34.746;138.604;2023-03-31T06:27:58;101655.09;;;23.75;30.47
77778;BME280;66966;-34.746;138.604;2023-03-31T06:30:23;101658.03;;;23.59;30.61
77778;BME280;66966;-34.746;138.604;2023-03-31T06:32:48;101660.58;;;23.33;30.90
77778;BME280;66966;-34.746;138.604;2023-03-31T06:35:13;101659.23;;;23.13;31.56
77778;BME280;66966;-34.746;138.604;2023-03-31T06:37:39;101659.99;;;23.14;31.78
77778;BME280;66966;-34.746;138.604;2023-03-31T06:40:04;101660.77;;;23.38;31.93
77778;BME280;66966;-34.746;138.604;2023-03-31T06:42:29;101662.77;;;22.80;32.14
77778;BME280;66966;-34.746;138.604;2023-03-31T06:44:54;101666.18;;;22.88;31.98
77778;BME280;66966;-34.746;138.604;2023-03-31T06:47:20;101671.20;;;22.84;31.31
77778;BME280;66966;-34.746;138.604;2023-03-31T06:49:45;101671.14;;;22.75;31.81
77778;BME280;66966;-34.746;138.604;2023-03-31T06:52:10;101670.73;;;22.61;32.04
77778;BME280;66966;-34.746;138.604;2023-03-31T06:54:36;101669.10;;;22.39;32.46
77778;BME280;66966;-34.746;138.604;2023-03-31T06:57:01;101675.01;;;22.24;33.16
77778;BME280;66966;-34.746;138.604;2023-03-31T06:59:26;101675.74;;;22.31;33.44
77778;BME280;66966;-34.746;138.604;2023-03-31T07:01:52;101680.43;;;22.34;33.64
77778;BME280;66966;-34.746;138.604;2023-03-31T07:04:17;101681.23;;;22.40;33.63
77778;BME280;66966;-34.746;138.604;2023-03-31T07:06:42;101683.16;;;22.31;33.65
77778;BME280;66966;-34.746;138.604;2023-03-31T07:09:08;101687.96;;;22.24;32.62
77778;BME280;66966;-34.746;138.604;2023-03-31T07:11:33;101687.86;;;21.77;32.60
77778;BME280;66966;-34.746;138.604;2023-03-31T07:13:59;101682.36;;;21.94;31.96
77778;BME280;66966;-34.746;138.604;2023-03-31T07:16:24;101685.01;;;22.25;31.75
77778;BME280;66966;-34.746;138.604;2023-03-31T07:18:49;101684.97;;;21.72;31.60
77778;BME280;66966;-34.746;138.604;2023-03-31T07:21:14;101679.68;;;21.71;31.81
77778;BME280;66966;-34.746;138.604;2023-03-31T07:23:40;101682.34;;;21.73;31.84
77778;BME280;66966;-34.746;138.604;2023-03-31T07:26:05;101686.11;;;21.80;31.87
77778;BME280;66966;-34.746;138.604;2023-03-31T07:28:30;101685.75;;;21.85;31.45
77778;BME280;66966;-34.746;138.604;2023-03-31T07:30:56;101688.07;;;21.76;31.36
77778;BME280;66966;-34.746;138.604;2023-03-31T07:33:21;101688.06;;;21.68;31.52
77778;BME280;66966;-34.746;138.604;2023-03-31T07:35:46;101692.42;;;22.04;31.73
77778;BME280;66966;-34.746;138.604;2023-03-31T07:38:12;101692.96;;;21.73;31.87
77778;BME280;66966;-34.746;138.604;2023-03-31T07:40:38;101693.81;;;21.66;32.16
77778;BME280;66966;-34.746;138.604;2023-03-31T07:43:03;101696.76;;;21.70;32.37
77778;BME280;66966;-34.746;138.604;2023-03-31T07:45:28;101699.08;;;21.46;32.67
77778;BME280;66966;-34.746;138.604;2023-03-31T07:47:53;101700.44;;;21.38;33.24
77778;BME280;66966;-34.746;138.604;2023-03-31T07:50:19;101702.86;;;21.34;33.70
77778;BME280;66966;-34.746;138.604;2023-03-31T07:52:44;101700.70;;;21.64;33.78
77778;BME280;66966;-34.746;138.604;2023-03-31T07:55:10;101693.90;;;21.57;33.68
77778;BME280;66966;-34.746;138.604;2023-03-31T07:57:35;101700.50;;;21.55;33.38
77778;BME280;66966;-34.746;138.604;2023-03-31T08:00:00;101699.13;;;21.80;33.19
77778;BME280;66966;-34.746;138.604;2023-03-31T08:02:26;101697.12;;;21.81;33.19
77778;BME280;66966;-34.746;138.604;2023-03-31T08:04:51;101700.32;;;21.69;33.39
77778;BME280;66966;-34.746;138.604;2023-03-31T08:07:16;101699.02;;;21.74;33.28
77778;BME280;66966;-34.746;138.604;2023-03-31T08:09:44;101697.42;;;21.25;33.03
77778;BME280;66966;-34.746;138.604;2023-03-31T08:12:07;101703.34;;;21.77;32.83
77778;BME280;66966;-34.746;138.604;2023-03-31T08:14:32;101705.71;;;21.46;32.89
77778;BME280;66966;-34.746;138.604;2023-03-31T08:16:58;101719.18;;;21.46;32.79
77778;BME280;66966;-34.746;138.604;2023-03-31T08:19:23;101726.36;;;21.48;33.14
77778;BME280;66966;-34.746;138.604;2023-03-31T08:21:48;101731.33;;;21.43;33.35
77778;BME280;66966;-34.746;138.604;2023-03-31T08:24:14;101735.19;;;21.32;33.32
77778;BME280;66966;-34.746;138.604;2023-03-31T08:26:41;101733.59;;;21.73;32.96
77778;BME280;66966;-34.746;138.604;2023-03-31T08:29:26;101742.88;;;20.57;32.68
77778;BME280;66966;-34.746;138.604;2023-03-31T08:31:46;101747.43;;;21.49;32.18
77778;BME280;66966;-34.746;138.604;2023-03-31T08:34:11;101753.85;;;21.71;32.58
77778;BME280;66966;-34.746;138.604;2023-03-31T08:36:37;101758.67;;;21.42;32.60
77778;BME280;66966;-34.746;138.604;2023-03-31T08:39:03;101760.98;;;21.61;32.31
77778;BME280;66966;-34.746;138.604;2023-03-31T08:41:38;101761.65;;;21.27;32.25
77778;BME280;66966;-34.746;138.604;2023-03-31T08:43:55;101763.28;;;21.51;32.13
77778;BME280;66966;-34.746;138.604;2023-03-31T08:46:19;101769.55;;;21.57;32.18
77778;BME280;66966;-34.746;138.604;2023-03-31T08:48:47;101774.56;;;21.59;32.12
77778;BME280;66966;-34.746;138.604;2023-03-31T08:51:15;101780.53;;;21.58;32.12
77778;BME280;66966;-34.746;138.604;2023-03-31T08:53:38;101781.69;;;21.79;32.05
77778;BME280;66966;-34.746;138.604;2023-03-31T08:56:00;101790.90;;;21.43;32.08
77778;BME280;66966;-34.746;138.604;2023-03-31T08:58:34;101788.57;;;21.33;32.33
77778;BME280;66966;-34.746;138.604;2023-03-31T09:00:54;101794.10;;;21.29;32.42
77778;BME280;66966;-34.746;138.604;2023-03-31T09:03:22;101798.00;;;21.21;32.56
77778;BME280;66966;-34.746;138.604;2023-03-31T09:05:47;101799.75;;;21.35;32.52
77778;BME280;66966;-34.746;138.604;2023-03-31T09:08:13;101805.98;;;21.00;32.58
77778;BME280;66966;-34.746;138.604;2023-03-31T09:10:41;101813.60;;;20.92;32.73
77778;BME280;66966;-34.746;138.604;2023-03-31T09:13:04;101809.83;;;20.72;32.73
77778;BME280;66966;-34.746;138.604;2023-03-31T09:15:26;101811.15;;;20.60;32.72
77778;BME280;66966;-34.746;138.604;2023-03-31T09:17:49;101814.21;;;20.64;32.58
77778;BME280;66966;-34.746;138.604;2023-03-31T09:20:16;101818.99;;;20.85;32.49
77778;BME280;66966;-34.746;138.604;2023-03-31T09:22:42;101818.06;;;20.61;32.37
77778;BME280;66966;-34.746;138.604;2023-03-31T09:25:07;101825.86;;;20.57;32.43
77778;BME280;66966;-34.746;138.604;2023-03-31T09:27:32;101830.72;;;20.53;32.49
77778;BME280;66966;-34.746;138.604;2023-03-31T09:29:57;101832.24;;;20.71;32.65
77778;BME280;66966;-34.746;138.604;2023-03-31T09:32:23;101835.18;;;20.64;32.82
77778;BME280;66966;-34.746;138.604;2023-03-31T09:34:49;101839.46;;;20.61;32.82
77778;BME280;66966;-34.746;138.604;2023-03-31T09:37:12;101841.49;;;20.81;32.94
77778;BME280;66966;-34.746;138.604;2023-03-31T09:39:38;101846.18;;;20.75;32.99
77778;BME280;66966;-34.746;138.604;2023-03-31T09:42:02;101849.11;;;20.78;33.02
77778;BME280;66966;-34.746;138.604;2023-03-31T09:44:34;101852.59;;;20.53;33.08
77778;BME280;66966;-34.746;138.604;2023-03-31T09:46:54;101855.49;;;20.51;33.27
77778;BME280;66966;-34.746;138.604;2023-03-31T09:49:20;101861.64;;;20.69;33.27
77778;BME280;66966;-34.746;138.604;2023-03-31T09:51:47;101863.13;;;20.42;33.26
77778;BME280;66966;-34.746;138.604;2023-03-31T09:54:18;101869.67;;;20.67;33.08
77778;BME280;66966;-34.746;138.604;2023-03-31T09:56:45;101871.73;;;20.39;33.28
77778;BME280;66966;-34.746;138.604;2023-03-31T09:59:02;101876.37;;;20.09;33.40
77778;BME280;66966;-34.746;138.604;2023-03-31T10:01:26;101877.54;;;20.10;33.14
77778;BME280;66966;-34.746;138.604;2023-03-31T10:03:53;101881.08;;;20.51;32.63
77778;BME280;66966;-34.746;138.604;2023-03-31T10:06:17;101888.35;;;20.41;32.27
77778;BME280;66966;-34.746;138.604;2023-03-31T10:08:45;101893.91;;;20.10;32.43
77778;BME280;66966;-34.746;138.604;2023-03-31T10:11:09;101900.01;;;20.29;32.32
77778;BME280;66966;-34.746;138.604;2023-03-31T10:13:41;101902.83;;;20.24;32.38
77778;BME280;66966;-34.746;138.604;2023-03-31T10:16:04;101905.54;;;20.18;32.22
77778;BME280;66966;-34.746;138.604;2023-03-31T10:18:32;101907.43;;;20.05;31.92
77778;BME280;66966;-34.746;138.604;2023-03-31T10:20:51;101909.14;;;19.70;31.78
77778;BME280;66966;-34.746;138.604;2023-03-31T10:23:22;101912.11;;;19.95;31.77
77778;BME280;66966;-34.746;138.604;2023-03-31T10:25:40;101920.38;;;19.94;31.63
77778;BME280;66966;-34.746;138.604;2023-03-31T10:28:09;101925.79;;;19.86;31.71
77778;BME280;66966;-34.746;138.604;2023-03-31T10:30:34;101926.22;;;19.78;31.63
77778;BME280;66966;-34.746;138.604;2023-03-31T10:32:56;101928.38;;;19.63;31.57
77778;BME280;66966;-34.746;138.604;2023-03-31T10:35:25;101932.69;;;20.08;31.69
77778;BME280;66966;-34.746;138.604;2023-03-31T10:37:48;101934.50;;;20.06;31.89
77778;BME280;66966;-34.746;138.604;2023-03-31T10:40:17;101935.94;;;19.78;31.89
77778;BME280;66966;-34.746;138.604;2023-03-31T10:42:38;101941.53;;;19.50;32.06
77778;BME280;66966;-34.746;138.604;2023-03-31T10:45:23;101949.09;;;19.87;31.82
77778;BME280;66966;-34.746;138.604;2023-03-31T10:47:33;101952.40;;;19.08;32.16
77778;BME280;66966;-34.746;138.604;2023-03-31T10:49:57;101952.83;;;19.54;32.16
77778;BME280;66966;-34.746;138.604;2023-03-31T10:52:23;101957.54;;;19.34;32.14
77778;BME280;66966;-34.746;138.604;2023-03-31T10:54:52;101959.82;;;19.59;31.93
77778;BME280;66966;-34.746;138.604;2023-03-31T10:57:11;101962.75;;;19.50;31.77
77778;BME280;66966;-34.746;138.604;2023-03-31T10:59:45;101964.03;;;19.38;32.20
77778;BME280;66966;-34.746;138.604;2023-03-31T11:02:21;101964.33;;;19.07;32.40
77778;BME280;66966;-34.746;138.604;2023-03-31T11:04:41;101964.14;;;18.87;32.46
77778;BME280;66966;-34.746;138.604;2023-03-31T11:06:58;101964.72;;;19.32;32.39
77778;BME280;66966;-34.746;138.604;2023-03-31T11:11:54;101971.83;;;19.13;32.35
77778;BME280;66966;-34.746;138.604;2023-03-31T11:14:14;101974.35;;;19.37;32.34
77778;BME280;66966;-34.746;138.604;2023-03-31T11:16:42;101976.81;;;19.11;32.34
77778;BME280;66966;-34.746;138.604;2023-03-31T11:19:09;101977.08;;;19.42;32.33
77778;BME280;66966;-34.746;138.604;2023-03-31T11:21:31;101980.51;;;18.97;32.47
77778;BME280;66966;-34.746;138.604;2023-03-31T11:23:59;101980.51;;;19.18;32.41
77778;BME280;66966;-34.746;138.604;2023-03-31T11:26:20;101981.19;;;19.18;32.45
77778;BME280;66966;-34.746;138.604;2023-03-31T11:28:54;101980.23;;;19.41;32.48
77778;BME280;66966;-34.746;138.604;2023-03-31T11:31:18;101980.95;;;19.37;32.41
77778;BME280;66966;-34.746;138.604;2023-03-31T11:33:45;101983.76;;;19.11;32.47
77778;BME280;66966;-34.746;138.604;2023-03-31T11:36:08;101982.43;;;19.10;32.58
77778;BME280;66966;-34.746;138.604;2023-03-31T11:38:35;101987.33;;;19.27;32.64
77778;BME280;66966;-34.746;138.604;2023-03-31T11:40:59;101988.63;;;18.75;32.72
77778;BME280;66966;-34.746;138.604;2023-03-31T11:43:22;101995.67;;;18.87;32.72
77778;BME280;66966;-34.746;138.604;2023-03-31T11:45:45;101994.48;;;19.06;32.82
77778;BME280;66966;-34.746;138.604;2023-03-31T11:48:09;101994.62;;;19.33;32.72
77778;BME280;66966;-34.746;138.604;2023-03-31T11:50:34;101996.08;;;19.08;32.96
77778;BME280;66966;-34.746;138.604;2023-03-31T11:52:59;101997.17;;;19.12;33.00
77778;BME280;66966;-34.746;138.604;2023-03-31T11:55:26;102001.82;;;19.04;32.78
77778;BME280;66966;-34.746;138.604;2023-03-31T11:57:56;102006.05;;;18.86;32.81
77778;BME280;66966;-34.746;138.604;2023-03-31T12:00:18;102009.45;;;19.10;32.88
77778;BME280;66966;-34.746;138.604;2023-03-31T12:02:45;102014.19;;;19.13;32.94
77778;BME280;66966;-34.746;138.604;2023-03-31T12:05:06;102010.86;;;19.11;32.67
77778;BME280;66966;-34.746;138.604;2023-03-31T12:07:33;102011.54;;;19.07;32.76
77778;BME280;66966;-34.746;138.604;2023-03-31T12:10:02;102011.32;;;19.05;32.90
77778;BME280;66966;-34.746;138.604;2023-03-31T12:12:24;102010.41;;;19.07;32.97
77778;BME280;66966;-34.746;138.604;2023-03-31T12:14:50;102011.25;;;19.12;32.86
77778;BME280;66966;-34.746;138.604;2023-03-31T12:17:14;102011.11;;;19.04;32.82
77778;BME280;66966;-34.746;138.604;2023-03-31T12:19:46;102008.81;;;18.86;32.63
77778;BME280;66966;-34.746;138.604;2023-03-31T12:22:09;102013.49;;;19.08;32.65
77778;BME280;66966;-34.746;138.604;2023-03-31T12:24:29;102010.66;;;18.49;32.71
77778;BME280;66966;-34.746;138.604;2023-03-31T12:27:01;102010.24;;;18.90;32.81